सभी
Dirk Hartog Island Airport YDHD मौसम
There is no TAF data available at YDHD. Showing TAF data for YSHK (27 mi E).
MJK Terminal Area Forecast (no data for YDHD)
| Date | Time (AWST) | Flight Rules | Wind Dir. | Speed | Type | Height AGL (ft) | Visibility | Remarks | ||||||
|---|---|---|---|---|---|---|---|---|---|---|---|---|---|---|
There is no METAR data available at YDHD. Showing METAR data for YSHK (27 mi E).
Recent MJK METAR history (no data for YDHD)
| Date | Time (AWST) | Flight Rules | Wind Dir. | Speed | Type | Height AGL (ft) | Visibility | Temp (°C) | Temp (°F) | Dew Point (°C) | Dew Point (°F) | Rel. Humid. | Pressure | Density Altitude | Remarks |
|---|---|---|---|---|---|---|---|---|---|---|---|---|---|---|---|
| 04-मई | 21:00 | n/a | 110° | 8 kt | Missing | 22° | 71° | 8° | 46° | 41% | 1018 mb | 809 ft | |||
| 04-मई | 20:00 | n/a | 130° | 8 kt | Missing | 23° | 73° | 5° | 41° | 31% | 1018 mb | 929 ft | |||
| 04-मई | 19:00 | n/a | 140° | 7 kt | Missing | 22° | 71° | 4° | 39° | 31% | 1017 mb | 839 ft | |||
| 04-मई | 18:00 | n/a | 150° | 5 kt | Missing | 25° | 77° | 3° | 37° | 24% | 1017 mb | 1,199 ft | |||
| 04-मई | 17:00 | n/a | 130° | 10 kt | Missing | 28° | 82° | 2° | 35° | 19% | 1017 mb | 1,559 ft | |||
| 04-मई | 16:00 | n/a | 110° | 13 kt | Missing | 29° | 84° | 2° | 35° | 18% | 1017 mb | 1,679 ft | |||
| 04-मई | 15:00 | n/a | 110° | 14 kt | Missing | 29° | 84° | 3° | 37° | 19% | 1017 mb | 1,679 ft | |||
| 04-मई | 14:00 | n/a | 100° | 14 kt | Missing | 29° | 84° | 2° | 35° | 18% | 1017 mb | 1,679 ft | |||
| 04-मई | 13:00 | n/a | 90° | 14 kt | Missing | 28° | 82° | 3° | 37° | 20% | 1018 mb | 1,529 ft | |||
| 04-मई | 12:00 | n/a | 90° | 16 kt | Missing | 26° | 78° | 3° | 37° | 23% | 1018 mb | 1,289 ft | |||
| 04-मई | 11:00 | n/a | 90° | 15 kt | Missing | 24° | 75° | 3° | 37° | 25% | 1019 mb | 1,020 ft | |||
| 04-मई | 10:00 | n/a | 90° | 15 kt | Missing | 23° | 73° | 4° | 39° | 29% | 1020 mb | 870 ft | |||
| 04-मई | 09:00 | n/a | 100° | 15 kt | Missing | 22° | 71° | 5° | 41° | 33% | 1020 mb | 750 ft | |||
| 04-मई | 08:00 | n/a | 110° | 14 kt | Missing | 20° | 68° | 7° | 44° | 43% | 1019 mb | 540 ft | |||
| 04-मई | 07:00 | n/a | 110° | 12 kt | Missing | 17° | 62° | 7° | 44° | 52% | 1019 mb | 180 ft | |||
| 04-मई | 06:00 | n/a | 110° | 12 kt | Missing | 18° | 64° | 7° | 44° | 49% | 1019 mb | 300 ft | |||
| 04-मई | 05:00 | n/a | 110° | 11 kt | Missing | 18° | 64° | 7° | 44° | 49% | 1018 mb | 329 ft | |||
| 04-मई | 04:00 | n/a | 110° | 12 kt | Missing | 19° | 66° | 7° | 44° | 46% | 1018 mb | 449 ft | |||
| 04-मई | 03:00 | n/a | 120° | 12 kt | Missing | 19° | 66° | 7° | 44° | 46% | 1018 mb | 449 ft | |||
| 04-मई | 02:00 | n/a | 120° | 12 kt | Missing | 19° | 66° | 7° | 44° | 46% | 1018 mb | 449 ft | |||
| 04-मई | 01:00 | n/a | 120° | 11 kt | Missing | 19° | 66° | 7° | 44° | 46% | 1018 mb | 449 ft | |||
| 04-मई | 00:00 | n/a | 120° | 10 kt | Missing | 18° | 64° | 9° | 48° | 56% | 1018 mb | 329 ft | |||
| 03-मई | 23:00 | n/a | 130° | 10 kt | Missing | 19° | 66° | 9° | 48° | 52% | 1018 mb | 449 ft | |||
| 03-मई | 22:00 | n/a | 130° | 9 kt | Missing | 19° | 66° | 10° | 50° | 56% | 1018 mb | 449 ft |
लॉगिन
| Your browser is unsupported. अपना ब्राऊजर अपग्रेड करें |
